sensor_id;sensor_type;location;lat;lon;timestamp;temperature;humidity
67769;DHT22;54569;52.018;5.584;2023-07-13T00:00:37;17.80;67.70
67769;DHT22;54569;52.018;5.584;2023-07-13T00:03:04;17.80;67.70
67769;DHT22;54569;52.018;5.584;2023-07-13T00:05:30;17.70;67.70
67769;DHT22;54569;52.018;5.584;2023-07-13T00:07:56;17.70;67.70
67769;DHT22;54569;52.018;5.584;2023-07-13T00:10:22;17.70;67.80
67769;DHT22;54569;52.018;5.584;2023-07-13T00:12:48;17.60;67.90
67769;DHT22;54569;52.018;5.584;2023-07-13T00:15:20;17.50;68.00
67769;DHT22;54569;52.018;5.584;2023-07-13T00:17:53;17.50;68.20
67769;DHT22;54569;52.018;5.584;2023-07-13T00:20:21;17.50;68.20
67769;DHT22;54569;52.018;5.584;2023-07-13T00:22:48;17.40;68.30
67769;DHT22;54569;52.018;5.584;2023-07-13T00:25:15;17.50;68.50
67769;DHT22;54569;52.018;5.584;2023-07-13T00:27:43;17.40;68.40
67769;DHT22;54569;52.018;5.584;2023-07-13T00:30:10;17.40;68.60
67769;DHT22;54569;52.018;5.584;2023-07-13T00:32:36;17.40;68.50
67769;DHT22;54569;52.018;5.584;2023-07-13T00:35:02;17.40;68.50
67769;DHT22;54569;52.018;5.584;2023-07-13T00:37:30;17.30;68.60
67769;DHT22;54569;52.018;5.584;2023-07-13T00:39:56;17.30;68.80
67769;DHT22;54569;52.018;5.584;2023-07-13T00:42:23;17.30;68.90
67769;DHT22;54569;52.018;5.584;2023-07-13T00:47:36;17.20;69.40
67769;DHT22;54569;52.018;5.584;2023-07-13T00:50:04;17.20;69.10
67769;DHT22;54569;52.018;5.584;2023-07-13T00:52:32;17.10;69.30
67769;DHT22;54569;52.018;5.584;2023-07-13T00:54:59;17.10;69.30
67769;DHT22;54569;52.018;5.584;2023-07-13T00:57:25;17.10;69.50
67769;DHT22;54569;52.018;5.584;2023-07-13T00:59:56;17.00;69.60
67769;DHT22;54569;52.018;5.584;2023-07-13T01:02:24;17.00;69.70
67769;DHT22;54569;52.018;5.584;2023-07-13T01:04:51;17.00;69.70
67769;DHT22;54569;52.018;5.584;2023-07-13T01:07:18;17.00;69.80
67769;DHT22;54569;52.018;5.584;2023-07-13T01:09:44;17.00;69.90
67769;DHT22;54569;52.018;5.584;2023-07-13T01:12:11;17.00;70.00
67769;DHT22;54569;52.018;5.584;2023-07-13T01:14:37;17.00;70.20
67769;DHT22;54569;52.018;5.584;2023-07-13T01:17:03;17.00;70.10
67769;DHT22;54569;52.018;5.584;2023-07-13T01:19:41;16.90;70.10
67769;DHT22;54569;52.018;5.584;2023-07-13T01:22:10;17.00;70.30
67769;DHT22;54569;52.018;5.584;2023-07-13T01:24:38;16.90;70.90
67769;DHT22;54569;52.018;5.584;2023-07-13T01:27:06;16.90;70.30
67769;DHT22;54569;52.018;5.584;2023-07-13T01:29:36;16.90;70.40
67769;DHT22;54569;52.018;5.584;2023-07-13T01:32:18;16.80;70.60
67769;DHT22;54569;52.018;5.584;2023-07-13T01:34:48;16.80;70.80
67769;DHT22;54569;52.018;5.584;2023-07-13T01:37:16;16.80;70.60
67769;DHT22;54569;52.018;5.584;2023-07-13T01:39:43;16.80;70.80
67769;DHT22;54569;52.018;5.584;2023-07-13T01:42:09;16.80;70.80
67769;DHT22;54569;52.018;5.584;2023-07-13T01:44:34;16.70;70.80
67769;DHT22;54569;52.018;5.584;2023-07-13T01:47:01;16.70;70.80
67769;DHT22;54569;52.018;5.584;2023-07-13T01:49:27;16.70;70.80
67769;DHT22;54569;52.018;5.584;2023-07-13T01:51:52;16.70;70.90
67769;DHT22;54569;52.018;5.584;2023-07-13T01:54:18;16.70;71.00
67769;DHT22;54569;52.018;5.584;2023-07-13T01:56:44;16.60;71.10
67769;DHT22;54569;52.018;5.584;2023-07-13T01:59:10;16.60;71.20
67769;DHT22;54569;52.018;5.584;2023-07-13T02:01:36;16.60;71.30
67769;DHT22;54569;52.018;5.584;2023-07-13T02:04:03;16.50;71.50
67769;DHT22;54569;52.018;5.584;2023-07-13T02:06:32;16.50;71.60
67769;DHT22;54569;52.018;5.584;2023-07-13T02:09:00;16.50;71.80
67769;DHT22;54569;52.018;5.584;2023-07-13T02:11:26;16.50;71.90
67769;DHT22;54569;52.018;5.584;2023-07-13T02:14:00;16.50;71.90
67769;DHT22;54569;52.018;5.584;2023-07-13T02:16:27;16.50;71.90
67769;DHT22;54569;52.018;5.584;2023-07-13T02:18:53;16.50;72.00
67769;DHT22;54569;52.018;5.584;2023-07-13T02:21:20;16.40;72.20
67769;DHT22;54569;52.018;5.584;2023-07-13T02:23:46;16.40;72.50
67769;DHT22;54569;52.018;5.584;2023-07-13T02:26:14;16.40;72.50
67769;DHT22;54569;52.018;5.584;2023-07-13T02:28:39;16.40;72.70
67769;DHT22;54569;52.018;5.584;2023-07-13T02:31:11;16.30;72.70
67769;DHT22;54569;52.018;5.584;2023-07-13T02:33:37;16.30;72.90
67769;DHT22;54569;52.018;5.584;2023-07-13T02:36:03;16.30;73.00
67769;DHT22;54569;52.018;5.584;2023-07-13T02:38:32;16.30;73.10
67769;DHT22;54569;52.018;5.584;2023-07-13T02:41:02;16.30;73.30
67769;DHT22;54569;52.018;5.584;2023-07-13T02:43:28;16.20;73.60
67769;DHT22;54569;52.018;5.584;2023-07-13T02:45:54;16.20;73.60
67769;DHT22;54569;52.018;5.584;2023-07-13T02:48:19;16.20;73.60
67769;DHT22;54569;52.018;5.584;2023-07-13T02:50:45;16.10;73.80
67769;DHT22;54569;52.018;5.584;2023-07-13T02:53:11;16.20;74.00
67769;DHT22;54569;52.018;5.584;2023-07-13T02:55:37;16.20;74.00
67769;DHT22;54569;52.018;5.584;2023-07-13T02:58:04;16.10;74.10
67769;DHT22;54569;52.018;5.584;2023-07-13T03:00:31;16.10;74.20
67769;DHT22;54569;52.018;5.584;2023-07-13T03:02:57;16.10;74.50
67769;DHT22;54569;52.018;5.584;2023-07-13T03:05:24;16.10;74.50
67769;DHT22;54569;52.018;5.584;2023-07-13T03:07:50;16.10;74.60
67769;DHT22;54569;52.018;5.584;2023-07-13T03:10:16;16.00;75.10
67769;DHT22;54569;52.018;5.584;2023-07-13T03:12:47;16.00;75.20
67769;DHT22;54569;52.018;5.584;2023-07-13T03:15:21;16.00;75.40
67769;DHT22;54569;52.018;5.584;2023-07-13T03:17:48;16.00;75.30
67769;DHT22;54569;52.018;5.584;2023-07-13T03:20:15;16.00;75.50
67769;DHT22;54569;52.018;5.584;2023-07-13T03:22:41;16.00;75.50
67769;DHT22;54569;52.018;5.584;2023-07-13T03:25:07;16.00;75.50
67769;DHT22;54569;52.018;5.584;2023-07-13T03:27:33;16.00;75.90
67769;DHT22;54569;52.018;5.584;2023-07-13T03:29:59;16.00;75.80
67769;DHT22;54569;52.018;5.584;2023-07-13T03:32:25;16.00;75.90
67769;DHT22;54569;52.018;5.584;2023-07-13T03:34:53;16.00;75.90
67769;DHT22;54569;52.018;5.584;2023-07-13T03:37:18;16.00;76.10
67769;DHT22;54569;52.018;5.584;2023-07-13T03:39:44;16.00;76.10
67769;DHT22;54569;52.018;5.584;2023-07-13T03:42:11;16.00;76.20
67769;DHT22;54569;52.018;5.584;2023-07-13T03:44:40;16.00;76.30
67769;DHT22;54569;52.018;5.584;2023-07-13T03:47:06;16.00;76.60
67769;DHT22;54569;52.018;5.584;2023-07-13T03:49:34;16.00;76.60
67769;DHT22;54569;52.018;5.584;2023-07-13T03:52:00;15.90;76.60
67769;DHT22;54569;52.018;5.584;2023-07-13T03:54:27;16.00;76.70
67769;DHT22;54569;52.018;5.584;2023-07-13T03:56:53;16.00;76.80
67769;DHT22;54569;52.018;5.584;2023-07-13T03:59:21;15.90;76.90
67769;DHT22;54569;52.018;5.584;2023-07-13T04:01:46;16.00;77.10
67769;DHT22;54569;52.018;5.584;2023-07-13T04:04:12;15.90;77.00
67769;DHT22;54569;52.018;5.584;2023-07-13T04:06:38;15.90;77.10
67769;DHT22;54569;52.018;5.584;2023-07-13T04:09:04;15.90;77.20
67769;DHT22;54569;52.018;5.584;2023-07-13T04:11:35;15.90;77.40
67769;DHT22;54569;52.018;5.584;2023-07-13T04:14:05;15.90;77.60
67769;DHT22;54569;52.018;5.584;2023-07-13T04:16:33;15.90;77.50
67769;DHT22;54569;52.018;5.584;2023-07-13T04:18:58;15.90;77.60
67769;DHT22;54569;52.018;5.584;2023-07-13T04:21:26;15.90;77.60
67769;DHT22;54569;52.018;5.584;2023-07-13T04:23:52;15.90;77.60
67769;DHT22;54569;52.018;5.584;2023-07-13T04:26:18;16.00;77.90
67769;DHT22;54569;52.018;5.584;2023-07-13T04:28:47;16.00;77.90
67769;DHT22;54569;52.018;5.584;2023-07-13T04:31:13;15.90;78.10
67769;DHT22;54569;52.018;5.584;2023-07-13T04:33:39;15.90;78.30
67769;DHT22;54569;52.018;5.584;2023-07-13T04:36:05;15.90;78.30
67769;DHT22;54569;52.018;5.584;2023-07-13T04:38:32;16.00;78.30
67769;DHT22;54569;52.018;5.584;2023-07-13T04:41:00;15.90;78.40
67769;DHT22;54569;52.018;5.584;2023-07-13T04:43:27;15.90;78.80
67769;DHT22;54569;52.018;5.584;2023-07-13T04:45:54;15.90;78.80
67769;DHT22;54569;52.018;5.584;2023-07-13T04:48:21;16.00;79.40
67769;DHT22;54569;52.018;5.584;2023-07-13T04:50:47;16.00;78.90
67769;DHT22;54569;52.018;5.584;2023-07-13T04:53:13;16.00;79.40
67769;DHT22;54569;52.018;5.584;2023-07-13T04:55:39;16.00;79.00
67769;DHT22;54569;52.018;5.584;2023-07-13T04:58:06;16.00;79.10
67769;DHT22;54569;52.018;5.584;2023-07-13T05:00:32;16.00;79.10
67769;DHT22;54569;52.018;5.584;2023-07-13T05:02:58;16.10;79.50
67769;DHT22;54569;52.018;5.584;2023-07-13T05:05:26;16.10;79.70
67769;DHT22;54569;52.018;5.584;2023-07-13T05:07:52;16.10;79.50
67769;DHT22;54569;52.018;5.584;2023-07-13T05:10:18;16.10;79.50
67769;DHT22;54569;52.018;5.584;2023-07-13T05:12:44;16.20;79.50
67769;DHT22;54569;52.018;5.584;2023-07-13T05:15:11;16.20;79.40
67769;DHT22;54569;52.018;5.584;2023-07-13T05:17:37;16.30;79.40
67769;DHT22;54569;52.018;5.584;2023-07-13T05:20:05;16.30;79.40
67769;DHT22;54569;52.018;5.584;2023-07-13T05:22:31;16.30;79.60
67769;DHT22;54569;52.018;5.584;2023-07-13T05:24:57;16.30;79.40
67769;DHT22;54569;52.018;5.584;2023-07-13T05:27:23;16.30;79.30
67769;DHT22;54569;52.018;5.584;2023-07-13T05:29:49;16.40;79.30
67769;DHT22;54569;52.018;5.584;2023-07-13T05:32:15;16.50;79.30
67769;DHT22;54569;52.018;5.584;2023-07-13T05:34:41;16.50;79.40
67769;DHT22;54569;52.018;5.584;2023-07-13T05:37:08;16.60;79.30
67769;DHT22;54569;52.018;5.584;2023-07-13T05:39:34;16.60;79.20
67769;DHT22;54569;52.018;5.584;2023-07-13T05:42:01;16.60;78.90
67769;DHT22;54569;52.018;5.584;2023-07-13T05:44:27;16.70;79.00
67769;DHT22;54569;52.018;5.584;2023-07-13T05:46:53;16.80;78.80
67769;DHT22;54569;52.018;5.584;2023-07-13T05:49:20;16.90;78.70
67769;DHT22;54569;52.018;5.584;2023-07-13T05:51:46;16.90;79.10
67769;DHT22;54569;52.018;5.584;2023-07-13T05:54:11;17.00;78.80
67769;DHT22;54569;52.018;5.584;2023-07-13T05:56:37;17.00;78.70
67769;DHT22;54569;52.018;5.584;2023-07-13T05:59:03;17.00;78.60
67769;DHT22;54569;52.018;5.584;2023-07-13T06:01:29;17.10;78.60
67769;DHT22;54569;52.018;5.584;2023-07-13T06:03:55;17.20;78.50
67769;DHT22;54569;52.018;5.584;2023-07-13T06:06:21;17.20;78.30
67769;DHT22;54569;52.018;5.584;2023-07-13T06:08:47;17.30;78.50
67769;DHT22;54569;52.018;5.584;2023-07-13T06:11:21;17.30;78.50
67769;DHT22;54569;52.018;5.584;2023-07-13T06:13:47;17.40;78.70
67769;DHT22;54569;52.018;5.584;2023-07-13T06:16:14;17.40;78.30
67769;DHT22;54569;52.018;5.584;2023-07-13T06:18:40;17.50;78.30
67769;DHT22;54569;52.018;5.584;2023-07-13T06:21:12;17.60;78.20
67769;DHT22;54569;52.018;5.584;2023-07-13T06:23:38;17.60;78.60
67769;DHT22;54569;52.018;5.584;2023-07-13T06:26:05;17.60;78.50
67769;DHT22;54569;52.018;5.584;2023-07-13T06:28:32;17.60;78.60
67769;DHT22;54569;52.018;5.584;2023-07-13T06:30:59;17.60;78.70
67769;DHT22;54569;52.018;5.584;2023-07-13T06:33:26;17.70;78.60
67769;DHT22;54569;52.018;5.584;2023-07-13T06:35:52;17.80;78.30
67769;DHT22;54569;52.018;5.584;2023-07-13T06:38:18;18.00;77.90
67769;DHT22;54569;52.018;5.584;2023-07-13T06:40:44;18.00;77.80
67769;DHT22;54569;52.018;5.584;2023-07-13T06:43:10;18.00;77.90
67769;DHT22;54569;52.018;5.584;2023-07-13T06:45:41;18.00;78.10
67769;DHT22;54569;52.018;5.584;2023-07-13T06:48:07;17.90;78.70
67769;DHT22;54569;52.018;5.584;2023-07-13T06:50:33;17.90;78.60
67769;DHT22;54569;52.018;5.584;2023-07-13T06:52:59;17.90;78.60
67769;DHT22;54569;52.018;5.584;2023-07-13T06:55:25;17.90;78.60
67769;DHT22;54569;52.018;5.584;2023-07-13T06:57:51;18.00;78.50
67769;DHT22;54569;52.018;5.584;2023-07-13T07:00:17;18.10;78.40
67769;DHT22;54569;52.018;5.584;2023-07-13T07:02:43;18.10;78.60
67769;DHT22;54569;52.018;5.584;2023-07-13T07:05:09;18.10;78.60
67769;DHT22;54569;52.018;5.584;2023-07-13T07:07:35;18.10;78.50
67769;DHT22;54569;52.018;5.584;2023-07-13T07:10:01;18.10;78.40
67769;DHT22;54569;52.018;5.584;2023-07-13T07:12:28;18.20;78.20
67769;DHT22;54569;52.018;5.584;2023-07-13T07:14:54;18.30;78.10
67769;DHT22;54569;52.018;5.584;2023-07-13T07:17:19;18.30;78.10
67769;DHT22;54569;52.018;5.584;2023-07-13T07:19:45;18.30;78.20
67769;DHT22;54569;52.018;5.584;2023-07-13T07:22:11;18.30;78.30
67769;DHT22;54569;52.018;5.584;2023-07-13T07:24:37;18.40;78.10
67769;DHT22;54569;52.018;5.584;2023-07-13T07:27:03;18.40;78.10
67769;DHT22;54569;52.018;5.584;2023-07-13T07:29:29;18.50;77.90
67769;DHT22;54569;52.018;5.584;2023-07-13T07:31:55;18.60;77.80
67769;DHT22;54569;52.018;5.584;2023-07-13T07:34:21;18.70;77.50
67769;DHT22;54569;52.018;5.584;2023-07-13T07:36:47;18.70;77.50
67769;DHT22;54569;52.018;5.584;2023-07-13T07:39:13;18.70;77.50
67769;DHT22;54569;52.018;5.584;2023-07-13T07:41:38;18.70;78.20
67769;DHT22;54569;52.018;5.584;2023-07-13T07:44:04;18.80;77.40
67769;DHT22;54569;52.018;5.584;2023-07-13T07:46:32;19.00;76.90
67769;DHT22;54569;52.018;5.584;2023-07-13T07:48:58;19.10;76.50
67769;DHT22;54569;52.018;5.584;2023-07-13T07:51:24;19.30;76.20
67769;DHT22;54569;52.018;5.584;2023-07-13T07:53:50;19.60;75.40
67769;DHT22;54569;52.018;5.584;2023-07-13T07:56:16;19.80;74.70
67769;DHT22;54569;52.018;5.584;2023-07-13T07:58:42;20.00;74.20
67769;DHT22;54569;52.018;5.584;2023-07-13T08:01:08;20.20;73.80
67769;DHT22;54569;52.018;5.584;2023-07-13T08:03:34;20.30;73.20
67769;DHT22;54569;52.018;5.584;2023-07-13T08:06:00;20.40;72.90
67769;DHT22;54569;52.018;5.584;2023-07-13T08:08:26;20.50;72.80
67769;DHT22;54569;52.018;5.584;2023-07-13T08:10:52;20.30;72.90
67769;DHT22;54569;52.018;5.584;2023-07-13T08:13:18;20.20;73.50
67769;DHT22;54569;52.018;5.584;2023-07-13T08:15:44;20.10;73.90
67769;DHT22;54569;52.018;5.584;2023-07-13T08:18:10;20.00;74.20
67769;DHT22;54569;52.018;5.584;2023-07-13T08:20:39;20.00;74.00
67769;DHT22;54569;52.018;5.584;2023-07-13T08:23:06;19.90;74.20
67769;DHT22;54569;52.018;5.584;2023-07-13T08:25:32;19.80;74.60
67769;DHT22;54569;52.018;5.584;2023-07-13T08:27:58;19.80;74.60
67769;DHT22;54569;52.018;5.584;2023-07-13T08:30:23;20.00;73.90
67769;DHT22;54569;52.018;5.584;2023-07-13T08:32:49;20.30;73.50
67769;DHT22;54569;52.018;5.584;2023-07-13T08:35:15;20.60;72.40
67769;DHT22;54569;52.018;5.584;2023-07-13T08:37:42;20.70;71.80
67769;DHT22;54569;52.018;5.584;2023-07-13T08:40:12;20.90;71.40
67769;DHT22;54569;52.018;5.584;2023-07-13T08:42:54;20.90;70.80
67769;DHT22;54569;52.018;5.584;2023-07-13T08:45:42;21.10;70.30
67769;DHT22;54569;52.018;5.584;2023-07-13T08:53:41;21.50;67.90
67769;DHT22;54569;52.018;5.584;2023-07-13T08:56:15;21.40;67.90
67769;DHT22;54569;52.018;5.584;2023-07-13T08:58:44;21.40;67.30
67769;DHT22;54569;52.018;5.584;2023-07-13T09:01:31;21.30;67.30
67769;DHT22;54569;52.018;5.584;2023-07-13T09:04:09;21.20;66.20
67769;DHT22;54569;52.018;5.584;2023-07-13T09:06:58;21.10;67.50
67769;DHT22;54569;52.018;5.584;2023-07-13T09:12:17;20.80;69.60
67769;DHT22;54569;52.018;5.584;2023-07-13T09:14:48;20.80;69.20
67769;DHT22;54569;52.018;5.584;2023-07-13T09:17:18;20.70;69.70
67769;DHT22;54569;52.018;5.584;2023-07-13T09:19:48;20.70;70.00
67769;DHT22;54569;52.018;5.584;2023-07-13T09:22:19;20.50;70.60
67769;DHT22;54569;52.018;5.584;2023-07-13T09:25:06;20.40;70.60
67769;DHT22;54569;52.018;5.584;2023-07-13T09:27:42;20.30;69.60
67769;DHT22;54569;52.018;5.584;2023-07-13T09:32:47;20.40;70.30
67769;DHT22;54569;52.018;5.584;2023-07-13T09:35:18;20.70;69.60
67769;DHT22;54569;52.018;5.584;2023-07-13T09:37:45;20.90;69.10
67769;DHT22;54569;52.018;5.584;2023-07-13T09:40:20;21.10;68.30
67769;DHT22;54569;52.018;5.584;2023-07-13T09:42:49;21.30;68.00
67769;DHT22;54569;52.018;5.584;2023-07-13T09:45:27;21.40;68.00
67769;DHT22;54569;52.018;5.584;2023-07-13T09:47:59;21.50;67.60
67769;DHT22;54569;52.018;5.584;2023-07-13T09:50:29;21.70;67.60
67769;DHT22;54569;52.018;5.584;2023-07-13T09:52:55;21.70;67.50
67769;DHT22;54569;52.018;5.584;2023-07-13T09:55:37;21.90;67.30
67769;DHT22;54569;52.018;5.584;2023-07-13T10:01:00;21.90;72.20
67769;DHT22;54569;52.018;5.584;2023-07-13T10:03:28;22.30;74.60
67769;DHT22;54569;52.018;5.584;2023-07-13T10:05:54;22.30;67.30
67769;DHT22;54569;52.018;5.584;2023-07-13T10:08:28;22.40;66.30
67769;DHT22;54569;52.018;5.584;2023-07-13T10:11:01;22.50;75.60
67769;DHT22;54569;52.018;5.584;2023-07-13T10:13:30;22.10;67.80
67769;DHT22;54569;52.018;5.584;2023-07-13T10:15:58;21.80;68.50
67769;DHT22;54569;52.018;5.584;2023-07-13T10:18:25;21.90;69.00
67769;DHT22;54569;52.018;5.584;2023-07-13T10:21:09;22.00;68.80
67769;DHT22;54569;52.018;5.584;2023-07-13T10:23:36;22.20;68.40
67769;DHT22;54569;52.018;5.584;2023-07-13T10:26:03;22.40;67.80
67769;DHT22;54569;52.018;5.584;2023-07-13T10:28:34;22.40;67.20
67769;DHT22;54569;52.018;5.584;2023-07-13T10:31:02;22.30;67.10
67769;DHT22;54569;52.018;5.584;2023-07-13T10:33:28;22.10;67.50
67769;DHT22;54569;52.018;5.584;2023-07-13T10:36:16;22.00;67.80
67769;DHT22;54569;52.018;5.584;2023-07-13T10:38:43;21.90;67.20
67769;DHT22;54569;52.018;5.584;2023-07-13T10:41:18;21.70;68.70
67769;DHT22;54569;52.018;5.584;2023-07-13T10:43:49;21.70;67.40
67769;DHT22;54569;52.018;5.584;2023-07-13T10:46:22;21.90;66.80
67769;DHT22;54569;52.018;5.584;2023-07-13T10:48:52;22.20;66.60
67769;DHT22;54569;52.018;5.584;2023-07-13T10:51:19;22.40;65.80
67769;DHT22;54569;52.018;5.584;2023-07-13T10:53:47;22.60;65.20
67769;DHT22;54569;52.018;5.584;2023-07-13T10:56:28;22.30;65.20
67769;DHT22;54569;52.018;5.584;2023-07-13T11:04:39;21.40;70.00
67769;DHT22;54569;52.018;5.584;2023-07-13T11:07:16;21.50;70.30
67769;DHT22;54569;52.018;5.584;2023-07-13T11:09:43;21.80;70.10
67769;DHT22;54569;52.018;5.584;2023-07-13T11:18:10;22.70;68.70
67769;DHT22;54569;52.018;5.584;2023-07-13T11:20:46;22.90;67.70
67769;DHT22;54569;52.018;5.584;2023-07-13T11:25:42;23.20;66.10
67769;DHT22;54569;52.018;5.584;2023-07-13T11:33:24;23.60;64.60
67769;DHT22;54569;52.018;5.584;2023-07-13T11:36:04;23.70;63.40
67769;DHT22;54569;52.018;5.584;2023-07-13T11:41:13;23.60;63.60
67769;DHT22;54569;52.018;5.584;2023-07-13T11:43:40;23.70;64.10
67769;DHT22;54569;52.018;5.584;2023-07-13T11:46:14;23.90;64.10
67769;DHT22;54569;52.018;5.584;2023-07-13T11:48:40;24.20;63.80
67769;DHT22;54569;52.018;5.584;2023-07-13T11:51:09;24.40;63.00
67769;DHT22;54569;52.018;5.584;2023-07-13T11:53:45;24.30;61.90
67769;DHT22;54569;52.018;5.584;2023-07-13T11:56:11;24.10;61.40
67769;DHT22;54569;52.018;5.584;2023-07-13T11:58:38;24.10;61.80
67769;DHT22;54569;52.018;5.584;2023-07-13T12:01:04;24.00;62.40
67769;DHT22;54569;52.018;5.584;2023-07-13T12:03:32;24.00;63.40
67769;DHT22;54569;52.018;5.584;2023-07-13T12:06:06;23.80;63.80
67769;DHT22;54569;52.018;5.584;2023-07-13T12:08:45;23.90;64.30
67769;DHT22;54569;52.018;5.584;2023-07-13T12:11:18;24.20;64.70
67769;DHT22;54569;52.018;5.584;2023-07-13T12:13:46;24.20;64.10
67769;DHT22;54569;52.018;5.584;2023-07-13T12:16:31;24.10;63.70
67769;DHT22;54569;52.018;5.584;2023-07-13T12:18:59;24.20;62.90
67769;DHT22;54569;52.018;5.584;2023-07-13T12:21:36;24.40;63.30
67769;DHT22;54569;52.018;5.584;2023-07-13T12:24:02;24.60;61.50
67769;DHT22;54569;52.018;5.584;2023-07-13T12:26:30;24.70;61.30
67769;DHT22;54569;52.018;5.584;2023-07-13T12:28:59;24.50;61.10
67769;DHT22;54569;52.018;5.584;2023-07-13T12:31:31;24.30;61.20
67769;DHT22;54569;52.018;5.584;2023-07-13T12:34:09;24.30;61.50
67769;DHT22;54569;52.018;5.584;2023-07-13T12:36:54;24.50;62.20
67769;DHT22;54569;52.018;5.584;2023-07-13T12:39:37;24.60;61.50
67769;DHT22;54569;52.018;5.584;2023-07-13T12:42:29;24.80;60.10
67769;DHT22;54569;52.018;5.584;2023-07-13T12:45:23;24.80;59.80
67769;DHT22;54569;52.018;5.584;2023-07-13T12:47:55;24.90;58.60
67769;DHT22;54569;52.018;5.584;2023-07-13T12:50:23;24.90;60.60
67769;DHT22;54569;52.018;5.584;2023-07-13T12:53:01;24.90;59.90
67769;DHT22;54569;52.018;5.584;2023-07-13T12:56:02;24.90;58.80
67769;DHT22;54569;52.018;5.584;2023-07-13T12:58:28;24.80;58.70
67769;DHT22;54569;52.018;5.584;2023-07-13T13:00:56;24.60;59.70
67769;DHT22;54569;52.018;5.584;2023-07-13T13:03:29;24.50;59.40
67769;DHT22;54569;52.018;5.584;2023-07-13T13:08:45;24.60;56.50
67769;DHT22;54569;52.018;5.584;2023-07-13T13:11:12;24.60;59.20
67769;DHT22;54569;52.018;5.584;2023-07-13T13:13:41;24.60;59.20
67769;DHT22;54569;52.018;5.584;2023-07-13T13:16:23;24.70;58.90
67769;DHT22;54569;52.018;5.584;2023-07-13T13:18:52;24.70;57.80
67769;DHT22;54569;52.018;5.584;2023-07-13T13:21:19;24.70;58.90
67769;DHT22;54569;52.018;5.584;2023-07-13T13:23:45;24.70;58.60
67769;DHT22;54569;52.018;5.584;2023-07-13T13:26:13;24.70;58.90
67769;DHT22;54569;52.018;5.584;2023-07-13T13:28:42;24.70;58.60
67769;DHT22;54569;52.018;5.584;2023-07-13T13:31:10;24.80;58.30
67769;DHT22;54569;52.018;5.584;2023-07-13T13:33:38;24.90;57.80
67769;DHT22;54569;52.018;5.584;2023-07-13T13:36:19;24.90;57.70
67769;DHT22;54569;52.018;5.584;2023-07-13T13:38:47;24.80;56.20
67769;DHT22;54569;52.018;5.584;2023-07-13T13:41:14;24.80;58.10
67769;DHT22;54569;52.018;5.584;2023-07-13T13:43:41;24.60;57.60
67769;DHT22;54569;52.018;5.584;2023-07-13T13:46:21;24.60;57.90
67769;DHT22;54569;52.018;5.584;2023-07-13T13:48:48;24.70;56.10
67769;DHT22;54569;52.018;5.584;2023-07-13T13:51:22;24.70;57.50
67769;DHT22;54569;52.018;5.584;2023-07-13T13:53:49;24.70;56.80
67769;DHT22;54569;52.018;5.584;2023-07-13T13:56:17;24.80;57.20
67769;DHT22;54569;52.018;5.584;2023-07-13T13:58:43;24.90;56.80
67769;DHT22;54569;52.018;5.584;2023-07-13T14:01:18;25.00;57.10
67769;DHT22;54569;52.018;5.584;2023-07-13T14:03:44;25.20;56.30
67769;DHT22;54569;52.018;5.584;2023-07-13T14:06:14;25.20;56.00
67769;DHT22;54569;52.018;5.584;2023-07-13T14:08:41;25.20;55.50
67769;DHT22;54569;52.018;5.584;2023-07-13T14:11:14;25.10;55.80
67769;DHT22;54569;52.018;5.584;2023-07-13T14:13:51;25.20;55.50
67769;DHT22;54569;52.018;5.584;2023-07-13T14:16:20;25.30;54.70
67769;DHT22;54569;52.018;5.584;2023-07-13T14:18:48;25.40;55.20
67769;DHT22;54569;52.018;5.584;2023-07-13T14:21:15;25.30;55.20
67769;DHT22;54569;52.018;5.584;2023-07-13T14:23:44;25.40;55.00
67769;DHT22;54569;52.018;5.584;2023-07-13T14:28:53;25.40;53.90
67769;DHT22;54569;52.018;5.584;2023-07-13T14:31:25;25.30;54.60
67769;DHT22;54569;52.018;5.584;2023-07-13T14:33:51;25.40;55.20
67769;DHT22;54569;52.018;5.584;2023-07-13T14:36:39;25.60;55.20
67769;DHT22;54569;52.018;5.584;2023-07-13T14:41:38;25.70;53.40
67769;DHT22;54569;52.018;5.584;2023-07-13T14:44:17;25.60;54.40
67769;DHT22;54569;52.018;5.584;2023-07-13T14:46:45;25.60;52.60
67769;DHT22;54569;52.018;5.584;2023-07-13T14:49:24;25.40;53.90
67769;DHT22;54569;52.018;5.584;2023-07-13T14:51:50;25.40;54.40
67769;DHT22;54569;52.018;5.584;2023-07-13T14:54:16;25.40;54.10
67769;DHT22;54569;52.018;5.584;2023-07-13T14:56:42;25.30;54.30
67769;DHT22;54569;52.018;5.584;2023-07-13T14:59:08;25.40;54.20
67769;DHT22;54569;52.018;5.584;2023-07-13T15:01:35;25.50;54.80
67769;DHT22;54569;52.018;5.584;2023-07-13T15:04:01;25.60;54.20
67769;DHT22;54569;52.018;5.584;2023-07-13T15:06:28;25.70;53.60
67769;DHT22;54569;52.018;5.584;2023-07-13T15:08:54;25.60;53.60
67769;DHT22;54569;52.018;5.584;2023-07-13T15:11:21;25.60;53.30
67769;DHT22;54569;52.018;5.584;2023-07-13T15:13:47;25.70;53.70
67769;DHT22;54569;52.018;5.584;2023-07-13T15:16:20;25.80;53.80
67769;DHT22;54569;52.018;5.584;2023-07-13T15:18:47;25.70;53.40
67769;DHT22;54569;52.018;5.584;2023-07-13T15:21:23;25.60;53.50
67769;DHT22;54569;52.018;5.584;2023-07-13T15:23:51;25.60;51.80
67769;DHT22;54569;52.018;5.584;2023-07-13T15:26:18;25.40;53.90
67769;DHT22;54569;52.018;5.584;2023-07-13T15:28:45;25.40;53.90
67769;DHT22;54569;52.018;5.584;2023-07-13T15:31:23;25.30;54.00
67769;DHT22;54569;52.018;5.584;2023-07-13T15:33:53;25.30;53.00
67769;DHT22;54569;52.018;5.584;2023-07-13T15:36:21;25.30;53.50
67769;DHT22;54569;52.018;5.584;2023-07-13T15:38:48;25.30;54.10
67769;DHT22;54569;52.018;5.584;2023-07-13T15:41:23;25.30;54.10
67769;DHT22;54569;52.018;5.584;2023-07-13T15:43:51;25.40;53.20
67769;DHT22;54569;52.018;5.584;2023-07-13T15:46:18;25.40;53.60
67769;DHT22;54569;52.018;5.584;2023-07-13T15:48:46;25.60;53.60
67769;DHT22;54569;52.018;5.584;2023-07-13T15:53:47;25.50;52.60
67769;DHT22;54569;52.018;5.584;2023-07-13T15:56:27;25.50;53.40
67769;DHT22;54569;52.018;5.584;2023-07-13T15:58:54;25.40;52.60
67769;DHT22;54569;52.018;5.584;2023-07-13T16:01:22;25.40;53.30
67769;DHT22;54569;52.018;5.584;2023-07-13T16:03:48;25.30;53.60
67769;DHT22;54569;52.018;5.584;2023-07-13T16:06:22;25.20;53.40
67769;DHT22;54569;52.018;5.584;2023-07-13T16:08:51;25.10;52.60
67769;DHT22;54569;52.018;5.584;2023-07-13T16:11:30;24.90;53.30
67769;DHT22;54569;52.018;5.584;2023-07-13T16:13:58;24.80;52.90
67769;DHT22;54569;52.018;5.584;2023-07-13T16:16:31;24.80;53.90
67769;DHT22;54569;52.018;5.584;2023-07-13T16:18:59;24.80;53.80
67769;DHT22;54569;52.018;5.584;2023-07-13T16:21:35;24.60;53.70
67769;DHT22;54569;52.018;5.584;2023-07-13T16:24:03;24.60;53.30
67769;DHT22;54569;52.018;5.584;2023-07-13T16:29:21;24.50;53.50
67769;DHT22;54569;52.018;5.584;2023-07-13T16:32:04;24.50;53.40